Time;durP1;ratioP1;P1;durP2;ratioP2;P2;SDS_P1;SDS_P2;PMS_P1;PMS_P2;Temp;Humidity;BMP_temperature;BMP_pressure;BME280_temperature;BME280_humidity;BME280_pressure;Samples;Min_cycle;Max_cycle;Signal;HPM_P1;HPM_P2
2021/11/30 00:02:26;;;;;;;0.90;0.80;;;20.60;48.40;;;;;;6212071;28;20057;-70
2021/11/30 00:05:27;;;;;;;1.00;0.80;;;20.60;48.40;;;;;;6194761;28;20031;-71
2021/11/30 00:08:30;;;;;;;0.80;0.73;;;20.60;48.50;;;;;;6201863;28;20392;-71
2021/11/30 00:11:31;;;;;;;1.00;0.80;;;20.60;48.40;;;;;;6216528;28;20030;-70
2021/11/30 00:14:31;;;;;;;1.20;0.60;;;20.60;48.40;;;;;;6204369;28;20085;-70
2021/11/30 00:17:32;;;;;;;0.60;0.52;;;20.60;48.30;;;;;;6192795;28;20073;-71
2021/11/30 00:20:33;;;;;;;0.80;0.65;;;20.60;48.30;;;;;;6217133;28;20030;-70
2021/11/30 00:23:35;;;;;;;1.35;0.95;;;20.60;48.30;;;;;;6216786;28;20041;-70
2021/11/30 00:26:36;;;;;;;0.70;0.60;;;20.60;48.30;;;;;;6206814;28;20029;-70
2021/11/30 00:29:36;;;;;;;0.77;0.70;;;20.60;48.30;;;;;;6233094;28;20491;-71
2021/11/30 00:32:37;;;;;;;0.90;0.70;;;20.60;48.30;;;;;;6195264;28;20029;-70
2021/11/30 00:35:38;;;;;;;1.23;0.80;;;20.60;48.40;;;;;;6218802;28;20145;-70
2021/11/30 00:38:39;;;;;;;1.38;0.90;;;20.50;48.30;;;;;;6197597;28;20073;-70
2021/11/30 00:41:45;;;;;;;0.70;0.60;;;20.50;48.40;;;;;;6197209;28;20037;-70
2021/11/30 00:44:47;;;;;;;1.02;0.70;;;20.50;48.40;;;;;;6217844;28;20546;-71
2021/11/30 00:48:31;;;;;;;0.80;0.70;;;20.60;48.50;;;;;;6206499;28;20026;-71
2021/11/30 00:51:17;;;;;;;1.13;0.70;;;20.60;48.50;;;;;;6190472;28;20504;-71
2021/11/30 00:54:19;;;;;;;0.93;0.80;;;20.50;48.40;;;;;;6216463;28;20024;-70
2021/11/30 00:57:22;;;;;;;0.98;0.77;;;20.50;48.40;;;;;;6217836;28;20041;-70
2021/11/30 01:00:23;;;;;;;1.15;0.80;;;20.50;48.40;;;;;;6216734;28;20106;-70
2021/11/30 01:03:23;;;;;;;0.70;0.60;;;20.50;48.50;;;;;;6216826;28;20483;-70
2021/11/30 01:06:24;;;;;;;0.65;0.57;;;20.50;48.50;;;;;;6217594;28;20486;-71
2021/11/30 01:09:25;;;;;;;0.82;0.70;;;20.50;48.50;;;;;;6216374;28;20080;-70
2021/11/30 01:12:26;;;;;;;0.60;0.60;;;20.50;48.50;;;;;;6217568;28;20587;-70
2021/11/30 01:15:27;;;;;;;0.88;0.80;;;20.50;48.50;;;;;;6195041;28;20046;-71
2021/11/30 01:18:28;;;;;;;0.90;0.80;;;20.50;48.50;;;;;;6200971;28;20491;-70
2021/11/30 01:21:29;;;;;;;0.93;0.80;;;20.50;48.50;;;;;;6194516;28;20026;-70
2021/11/30 01:24:29;;;;;;;1.00;0.90;;;20.50;48.50;;;;;;6215978;28;20434;-71
2021/11/30 01:27:30;;;;;;;0.85;0.60;;;20.50;48.50;;;;;;6220540;28;20021;-70
2021/11/30 01:30:31;;;;;;;0.80;0.63;;;20.50;48.60;;;;;;6213692;28;20026;-71
2021/11/30 01:33:35;;;;;;;0.75;0.68;;;20.50;48.50;;;;;;6198908;28;20480;-70
2021/11/30 01:36:36;;;;;;;0.60;0.60;;;20.50;48.50;;;;;;6199887;28;20602;-71
2021/11/30 01:39:36;;;;;;;1.02;0.70;;;20.50;48.50;;;;;;6221607;28;20079;-71
2021/11/30 01:42:42;;;;;;;0.98;0.70;;;20.50;48.50;;;;;;6209234;28;20026;-71
2021/11/30 01:45:46;;;;;;;0.70;0.70;;;20.50;48.50;;;;;;6197765;28;20018;-71
2021/11/30 01:52:09;;;;;;;0.80;0.60;;;20.50;48.50;;;;;;6221834;28;20114;-70
2021/11/30 01:55:09;;;;;;;0.90;0.77;;;20.50;48.40;;;;;;6220394;28;20022;-70
2021/11/30 01:58:12;;;;;;;1.00;0.80;;;20.50;48.50;;;;;;6193289;28;20165;-71
2021/11/30 02:01:14;;;;;;;1.10;0.90;;;20.50;48.50;;;;;;6173593;28;20069;-71
2021/11/30 02:04:15;;;;;;;1.00;0.80;;;20.50;48.40;;;;;;6192495;28;20369;-70
2021/11/30 02:07:17;;;;;;;0.60;0.60;;;20.50;48.40;;;;;;6197265;28;20032;-71
2021/11/30 02:10:18;;;;;;;1.17;0.85;;;20.50;48.50;;;;;;6219649;28;20553;-70
2021/11/30 02:13:19;;;;;;;1.70;0.90;;;20.50;48.50;;;;;;6215630;28;20030;-70
2021/11/30 02:16:21;;;;;;;1.08;0.90;;;20.50;48.40;;;;;;6196387;28;20066;-71
2021/11/30 02:19:22;;;;;;;0.75;0.63;;;20.50;49.10;;;;;;6212392;28;20472;-71
2021/11/30 02:22:23;;;;;;;1.08;0.80;;;20.50;48.50;;;;;;6220886;28;20036;-72
2021/11/30 02:25:24;;;;;;;0.80;0.77;;;20.50;48.50;;;;;;6214645;28;20365;-71
2021/11/30 02:28:25;;;;;;;0.80;0.70;;;20.50;48.50;;;;;;6214969;28;20030;-70
2021/11/30 02:31:29;;;;;;;1.15;0.88;;;20.50;48.50;;;;;;6196965;28;20029;-69
2021/11/30 02:34:30;;;;;;;1.37;0.83;;;20.50;48.50;;;;;;6218827;28;20022;-70
2021/11/30 02:37:38;;;;;;;0.95;0.70;;;20.50;48.50;;;;;;6219079;28;20045;-70
2021/11/30 02:40:39;;;;;;;1.05;0.60;;;20.50;48.40;;;;;;6218847;28;20084;-70
2021/11/30 02:43:39;;;;;;;0.77;0.73;;;20.50;48.50;;;;;;6219288;28;20022;-71
2021/11/30 02:46:47;;;;;;;1.10;0.80;;;20.50;48.50;;;;;;6218705;28;20695;-70
2021/11/30 02:49:48;;;;;;;0.95;0.70;;;20.50;48.50;;;;;;6218744;28;20088;-68
2021/11/30 02:52:48;;;;;;;1.67;0.98;;;20.50;48.40;;;;;;6219980;28;20463;-68
2021/11/30 02:55:49;;;;;;;0.98;0.60;;;20.50;48.50;;;;;;6219110;28;20431;-68
2021/11/30 02:58:50;;;;;;;1.10;0.80;;;20.50;48.50;;;;;;6219494;28;20040;-68
2021/11/30 03:01:56;;;;;;;0.40;0.40;;;20.50;48.50;;;;;;6220411;28;20378;-68
2021/11/30 03:05:00;;;;;;;0.80;0.70;;;20.50;48.50;;;;;;6220092;28;20037;-68
2021/11/30 03:08:00;;;;;;;0.80;0.68;;;20.50;48.50;;;;;;6234874;28;20026;-67
2021/11/30 03:11:01;;;;;;;0.70;0.60;;;20.50;48.50;;;;;;6196336;28;20484;-68
2021/11/30 03:14:02;;;;;;;0.80;0.60;;;20.50;48.50;;;;;;6200131;28;20407;-68
2021/11/30 03:17:05;;;;;;;0.65;0.65;;;20.50;48.50;;;;;;6194804;28;20088;-68
2021/11/30 03:20:07;;;;;;;1.27;0.75;;;20.50;48.50;;;;;;6195022;28;20072;-68
2021/11/30 03:23:08;;;;;;;0.88;0.65;;;20.50;48.50;;;;;;6199969;28;20040;-68
2021/11/30 03:26:09;;;;;;;0.82;0.73;;;20.50;48.50;;;;;;6217444;28;20026;-68
2021/11/30 03:29:10;;;;;;;1.20;0.90;;;20.50;48.50;;;;;;6194594;28;20084;-68
2021/11/30 03:35:41;;;;;;;0.60;0.60;;;20.50;48.50;;;;;;6199447;28;20396;-69
2021/11/30 03:38:41;;;;;;;0.80;0.70;;;20.50;48.50;;;;;;6219090;28;20014;-68
2021/11/30 03:41:43;;;;;;;1.10;0.80;;;20.50;48.50;;;;;;6215586;28;20045;-68
2021/11/30 03:44:44;;;;;;;0.95;0.70;;;20.40;48.50;;;;;;6193001;28;20034;-68
2021/11/30 03:47:45;;;;;;;3.53;0.70;;;20.50;48.50;;;;;;6206028;28;20145;-68
2021/11/30 03:50:46;;;;;;;0.65;0.60;;;20.50;48.60;;;;;;6219194;28;20029;-68
2021/11/30 03:53:46;;;;;;;0.93;0.80;;;20.50;48.60;;;;;;6200272;28;20026;-68
2021/11/30 03:56:49;;;;;;;0.90;0.70;;;20.40;48.50;;;;;;6196366;28;20029;-68
2021/11/30 04:00:43;;;;;;;0.75;0.75;;;20.40;48.50;;;;;;6219397;28;20041;-68
2021/11/30 04:03:44;;;;;;;0.80;0.60;;;20.40;48.50;;;;;;6218965;28;20033;-68
2021/11/30 04:06:46;;;;;;;0.90;0.60;;;20.50;48.60;;;;;;6218321;28;20026;-68
2021/11/30 04:09:46;;;;;;;1.55;0.70;;;20.40;48.60;;;;;;6217094;28;20034;-68
2021/11/30 04:12:47;;;;;;;0.57;0.52;;;20.40;48.50;;;;;;6217148;28;20026;-68
2021/11/30 04:15:48;;;;;;;0.60;0.52;;;20.40;48.50;;;;;;6193058;28;20077;-68
2021/11/30 04:18:49;;;;;;;0.70;0.70;;;20.40;48.50;;;;;;6206481;28;20462;-68
2021/11/30 04:21:49;;;;;;;1.15;0.70;;;20.40;48.50;;;;;;6218288;28;20039;-68
2021/11/30 04:24:51;;;;;;;0.75;0.70;;;20.40;48.50;;;;;;6199734;28;20030;-68
2021/11/30 04:27:51;;;;;;;0.82;0.65;;;20.40;48.50;;;;;;6218346;28;20038;-68
2021/11/30 04:30:52;;;;;;;0.80;0.65;;;20.40;48.50;;;;;;6197649;28;20384;-68
2021/11/30 04:33:53;;;;;;;0.88;0.77;;;20.40;48.50;;;;;;6216599;28;20394;-68
2021/11/30 04:36:54;;;;;;;1.17;0.80;;;20.40;48.40;;;;;;6216633;28;20030;-68
2021/11/30 04:39:55;;;;;;;1.10;0.77;;;20.40;48.40;;;;;;6218413;28;20029;-68
2021/11/30 04:42:56;;;;;;;1.02;0.88;;;20.40;48.40;;;;;;6216611;28;20022;-68
2021/11/30 04:45:59;;;;;;;0.82;0.70;;;20.40;48.50;;;;;;6218100;28;20034;-68
2021/11/30 04:49:13;;;;;;;1.25;0.68;;;20.50;48.50;;;;;;6196859;28;20015;-67
2021/11/30 04:52:15;;;;;;;1.33;0.90;;;20.40;48.50;;;;;;6208773;28;20034;-68
2021/11/30 04:55:21;;;;;;;1.08;0.60;;;20.40;48.50;;;;;;6193861;28;20625;-68
2021/11/30 04:58:22;;;;;;;0.75;0.70;;;20.40;48.50;;;;;;6212385;28;20099;-68
2021/11/30 05:01:23;;;;;;;0.77;0.70;;;20.40;48.50;;;;;;6223083;28;20065;-68
2021/11/30 05:04:24;;;;;;;1.25;0.75;;;20.40;48.50;;;;;;6222753;28;20061;-68
2021/11/30 05:07:24;;;;;;;0.93;0.80;;;20.40;48.50;;;;;;6221211;28;20033;-68
2021/11/30 05:10:25;;;;;;;0.85;0.80;;;20.40;48.50;;;;;;6222754;28;20107;-68
2021/11/30 05:13:26;;;;;;;1.10;0.70;;;20.40;48.50;;;;;;6216181;28;20073;-68
2021/11/30 05:16:27;;;;;;;1.15;0.90;;;20.40;48.50;;;;;;6212914;28;20133;-68
2021/11/30 05:19:28;;;;;;;1.10;0.90;;;20.40;48.50;;;;;;6216113;28;20499;-68
2021/11/30 05:22:29;;;;;;;0.80;0.68;;;20.40;48.50;;;;;;6222252;28;20057;-67
2021/11/30 05:25:34;;;;;;;0.82;0.65;;;20.40;48.40;;;;;;6222666;28;20030;-69
2021/11/30 05:28:37;;;;;;;0.90;0.80;;;20.50;48.40;;;;;;6220670;28;20032;-69
2021/11/30 05:31:37;;;;;;;1.10;0.90;;;20.50;48.20;;;;;;6194873;28;20022;-68
2021/11/30 05:34:38;;;;;;;0.70;0.70;;;20.50;48.10;;;;;;6197765;28;20022;-68
2021/11/30 05:37:39;;;;;;;1.27;0.90;;;20.50;48.10;;;;;;6202384;28;20076;-69
2021/11/30 05:40:41;;;;;;;0.80;0.60;;;20.50;48.10;;;;;;6222230;28;20026;-68
2021/11/30 05:43:42;;;;;;;0.90;0.70;;;20.50;48.10;;;;;;6220174;28;20037;-68
2021/11/30 05:46:46;;;;;;;1.00;0.90;;;20.50;48.10;;;;;;6221548;28;20314;-68
2021/11/30 05:49:46;;;;;;;1.27;0.80;;;20.50;48.00;;;;;;6221450;28;20574;-70
2021/11/30 05:52:47;;;;;;;1.25;1.15;;;20.50;48.00;;;;;;6193760;28;20034;-67
2021/11/30 05:55:52;;;;;;;0.82;0.75;;;20.50;48.00;;;;;;6188758;28;20023;-68
2021/11/30 05:58:53;;;;;;;4.20;1.10;;;20.50;48.00;;;;;;6199142;28;20022;-67
2021/11/30 06:01:55;;;;;;;2.28;1.10;;;20.50;48.00;;;;;;6188154;28;20031;-67
2021/11/30 06:04:56;;;;;;;5.25;0.93;;;20.50;48.00;;;;;;6195601;28;20019;-70
2021/11/30 06:07:57;;;;;;;3.20;0.98;;;20.50;48.00;;;;;;6197580;28;20026;-67
2021/11/30 06:10:58;;;;;;;0.90;0.70;;;20.50;48.10;;;;;;6194373;28;20029;-68
2021/11/30 06:13:59;;;;;;;1.85;1.00;;;20.50;48.10;;;;;;6209291;28;20416;-69
2021/11/30 06:17:00;;;;;;;1.73;1.15;;;20.50;48.10;;;;;;6219767;28;20033;-68
2021/11/30 06:20:00;;;;;;;2.47;0.90;;;20.50;48.20;;;;;;6195285;28;20026;-68
2021/11/30 06:23:01;;;;;;;1.45;1.02;;;20.50;48.30;;;;;;6199589;28;20022;-71
2021/11/30 06:26:02;;;;;;;1.10;0.90;;;20.50;48.40;;;;;;6219386;28;20045;-68
2021/11/30 06:29:03;;;;;;;2.75;1.73;;;20.50;48.70;;;;;;6207191;28;20410;-68
2021/11/30 06:32:04;;;;;;;2.05;1.60;;;20.50;47.30;;;;;;6196295;28;20395;-68
2021/11/30 06:35:06;;;;;;;2.42;1.30;;;20.50;47.60;;;;;;6209872;28;20097;-68
2021/11/30 06:38:07;;;;;;;2.05;1.50;;;20.50;47.80;;;;;;6210719;28;20026;-68
2021/11/30 06:41:07;;;;;;;2.58;1.65;;;20.60;48.00;;;;;;6199699;28;20535;-68
2021/11/30 06:44:08;;;;;;;1.15;0.85;;;20.60;47.90;;;;;;6218755;28;20022;-68
2021/11/30 06:47:09;;;;;;;1.95;1.10;;;20.60;47.90;;;;;;6210438;28;20080;-68
2021/11/30 06:50:10;;;;;;;1.73;1.05;;;20.60;48.00;;;;;;6207404;28;20035;-69
2021/11/30 06:53:11;;;;;;;2.42;1.30;;;20.60;48.10;;;;;;6208108;28;20105;-68
2021/11/30 06:56:12;;;;;;;2.97;0.90;;;20.60;48.00;;;;;;6195107;28;20026;-68
2021/11/30 06:59:13;;;;;;;2.55;1.10;;;20.60;48.10;;;;;;6210603;28;20093;-68
2021/11/30 07:02:14;;;;;;;1.80;1.30;;;20.60;48.10;;;;;;6192053;28;20033;-69
2021/11/30 07:05:20;;;;;;;3.10;1.75;;;20.60;48.00;;;;;;6211972;28;20080;-69
2021/11/30 07:08:34;;;;;;;1.15;0.90;;;20.60;48.10;;;;;;6206536;28;20357;-68
2021/11/30 07:14:47;;;;;;;1.02;0.90;;;20.60;48.10;;;;;;6220041;28;20591;-68
2021/11/30 07:17:47;;;;;;;1.70;1.20;;;20.60;48.20;;;;;;6219692;28;20022;-68
2021/11/30 07:20:49;;;;;;;1.65;1.00;;;20.60;48.20;;;;;;6197409;28;20077;-69
2021/11/30 07:23:50;;;;;;;1.13;0.90;;;20.60;48.30;;;;;;6205992;28;20030;-69
2021/11/30 07:26:50;;;;;;;1.25;1.08;;;20.60;48.30;;;;;;6219469;28;20049;-68
2021/11/30 07:29:51;;;;;;;1.45;1.10;;;20.60;48.30;;;;;;6215285;28;20030;-68
2021/11/30 07:32:52;;;;;;;1.35;0.98;;;20.60;48.40;;;;;;6207140;28;20377;-68
2021/11/30 07:35:52;;;;;;;1.67;1.05;;;20.60;48.30;;;;;;6218962;28;20442;-68
2021/11/30 07:38:54;;;;;;;1.17;0.98;;;20.60;48.30;;;;;;6210134;28;20088;-69
2021/11/30 07:41:55;;;;;;;3.17;1.00;;;20.60;48.50;;;;;;6214173;28;20399;-68
2021/11/30 07:44:56;;;;;;;2.58;1.20;;;20.60;48.50;;;;;;6212126;28;20033;-69
2021/11/30 07:47:56;;;;;;;1.17;0.90;;;20.60;48.50;;;;;;6208228;28;20096;-69
2021/11/30 07:50:58;;;;;;;2.17;1.20;;;20.70;48.70;;;;;;6235041;28;20033;-68
2021/11/30 07:53:59;;;;;;;1.25;1.08;;;20.60;48.60;;;;;;6205771;28;20468;-69
2021/11/30 07:57:00;;;;;;;1.73;1.20;;;20.60;48.60;;;;;;6212860;28;20086;-68
2021/11/30 08:00:01;;;;;;;1.40;1.10;;;20.60;48.60;;;;;;6202336;28;20050;-69
2021/11/30 08:03:02;;;;;;;1.30;1.02;;;20.60;48.60;;;;;;6217692;28;20030;-68
2021/11/30 08:06:03;;;;;;;1.95;1.23;;;20.60;48.50;;;;;;6219496;28;20422;-68
2021/11/30 08:09:04;;;;;;;2.25;1.20;;;20.60;48.50;;;;;;6218093;28;20438;-69
2021/11/30 08:12:05;;;;;;;2.35;1.08;;;20.60;48.50;;;;;;6217376;28;20025;-69
2021/11/30 08:15:07;;;;;;;2.33;1.15;;;20.60;48.60;;;;;;6198328;28;20534;-69
2021/11/30 08:18:08;;;;;;;4.03;1.10;;;20.60;48.60;;;;;;6196454;28;20023;-68
2021/11/30 08:21:09;;;;;;;2.78;1.00;;;20.70;48.90;;;;;;6204589;28;20057;-69
2021/11/30 08:24:09;;;;;;;2.33;1.20;;;20.70;48.70;;;;;;6204209;28;20061;-69
2021/11/30 08:27:11;;;;;;;4.82;1.02;;;20.70;48.80;;;;;;6207769;28;20039;-68
2021/11/30 08:30:12;;;;;;;4.38;1.42;;;20.70;48.90;;;;;;6196459;28;20484;-69
2021/11/30 08:33:13;;;;;;;3.25;1.20;;;20.70;49.10;;;;;;6189396;28;20083;-69
2021/11/30 08:36:14;;;;;;;7.05;1.10;;;20.70;49.00;;;;;;6214604;28;20042;-68
2021/11/30 08:39:15;;;;;;;3.72;1.00;;;20.70;48.70;;;;;;6207977;28;20088;-69
2021/11/30 08:42:17;;;;;;;2.70;1.10;;;20.70;48.60;;;;;;6201470;28;20503;-69
2021/11/30 08:45:18;;;;;;;1.15;0.93;;;20.70;48.70;;;;;;6213914;28;20025;-69
2021/11/30 08:48:19;;;;;;;1.30;1.00;;;20.70;48.70;;;;;;6205340;28;20025;-69
2021/11/30 08:51:20;;;;;;;3.97;1.00;;;20.70;48.80;;;;;;6219234;28;20025;-68
2021/11/30 08:54:20;;;;;;;3.20;1.10;;;20.70;48.80;;;;;;6208737;28;20372;-69
2021/11/30 08:57:23;;;;;;;2.05;1.02;;;20.70;48.90;;;;;;6207183;28;20446;-69
2021/11/30 09:00:27;;;;;;;1.38;0.90;;;20.70;48.80;;;;;;6195255;28;20034;-69
2021/11/30 09:03:28;;;;;;;1.48;1.00;;;20.70;48.70;;;;;;6204905;28;20033;-69
2021/11/30 09:06:29;;;;;;;1.45;1.00;;;20.70;48.70;;;;;;6233500;28;20030;-69
2021/11/30 09:09:31;;;;;;;1.20;0.90;;;20.70;48.80;;;;;;6213743;28;20426;-69
2021/11/30 09:12:32;;;;;;;2.38;1.10;;;20.70;48.80;;;;;;6212327;28;20028;-69
2021/11/30 09:15:33;;;;;;;1.17;0.90;;;20.70;48.80;;;;;;6212440;28;20080;-68
2021/11/30 09:18:34;;;;;;;5.15;0.85;;;20.70;48.80;;;;;;6214667;28;20137;-69
2021/11/30 09:21:34;;;;;;;1.58;1.05;;;20.70;48.80;;;;;;6193153;28;20446;-69
2021/11/30 09:24:36;;;;;;;1.45;1.13;;;20.70;48.80;;;;;;6203088;28;20035;-68
2021/11/30 09:27:39;;;;;;;1.20;1.10;;;20.70;48.80;;;;;;6212875;28;20026;-69
2021/11/30 09:30:41;;;;;;;3.30;1.25;;;20.70;48.70;;;;;;6202949;28;20511;-69
2021/11/30 09:33:43;;;;;;;1.23;1.00;;;20.70;48.70;;;;;;6210345;28;20425;-69
2021/11/30 09:36:46;;;;;;;1.45;1.08;;;20.70;48.70;;;;;;6199747;28;20193;-69
2021/11/30 09:39:47;;;;;;;2.30;1.10;;;20.70;48.70;;;;;;6201879;28;20029;-69
2021/11/30 09:42:49;;;;;;;2.85;1.30;;;20.70;48.60;;;;;;6206421;28;20026;-69
2021/11/30 09:45:50;;;;;;;2.88;1.20;;;20.70;48.60;;;;;;6212766;28;20034;-69
2021/11/30 09:48:52;;;;;;;2.40;1.30;;;20.70;48.50;;;;;;6203602;28;20105;-69
2021/11/30 09:51:53;;;;;;;2.55;1.10;;;20.70;48.50;;;;;;6201105;28;20105;-69
2021/11/30 09:54:53;;;;;;;2.42;1.42;;;20.60;48.40;;;;;;6211923;28;20032;-69
2021/11/30 09:57:54;;;;;;;3.53;1.60;;;20.70;48.60;;;;;;6206684;28;20338;-68
2021/11/30 10:00:57;;;;;;;4.18;1.65;;;20.60;48.50;;;;;;6204523;28;20142;-69
2021/11/30 10:04:01;;;;;;;3.50;1.63;;;20.70;48.50;;;;;;6196609;28;20027;-68
2021/11/30 10:07:01;;;;;;;3.25;1.77;;;20.70;48.60;;;;;;6197181;28;20033;-69
2021/11/30 10:10:13;;;;;;;3.22;1.95;;;20.70;48.60;;;;;;6208429;28;20026;-69
2021/11/30 10:13:14;;;;;;;5.40;2.55;;;20.70;48.70;;;;;;6203309;28;20026;-70
2021/11/30 10:16:14;;;;;;;5.63;2.17;;;20.70;48.80;;;;;;6195580;28;20578;-70
2021/11/30 10:19:15;;;;;;;7.15;2.85;;;20.70;48.90;;;;;;6201162;28;20122;-70
2021/11/30 10:22:33;;;;;;;14.45;4.00;;;20.70;49.00;;;;;;6193400;28;20115;-70
2021/11/30 10:25:38;;;;;;;10.00;4.25;;;20.70;49.00;;;;;;6193528;28;20519;-70
2021/11/30 10:28:38;;;;;;;12.60;3.83;;;20.70;49.00;;;;;;6219849;28;20030;-71
2021/11/30 10:31:47;;;;;;;8.02;3.03;;;20.70;49.00;;;;;;6204673;28;20037;-70
2021/11/30 10:34:59;;;;;;;7.07;3.20;;;20.70;49.00;;;;;;6207888;28;20092;-68
2021/11/30 10:38:02;;;;;;;7.20;3.40;;;20.70;49.00;;;;;;6208577;28;20467;-69
2021/11/30 10:41:16;;;;;;;8.45;3.58;;;20.70;49.20;;;;;;6209680;28;20033;-70
2021/11/30 10:44:31;;;;;;;7.03;2.70;;;20.60;49.10;;;;;;6187098;28;20026;-70
2021/11/30 10:47:36;;;;;;;7.47;3.10;;;20.60;48.20;;;;;;6189295;28;20022;-69
2021/11/30 10:50:38;;;;;;;;;;;20.60;47.60;;;;;;6209422;28;20022;-70
2021/11/30 10:53:42;;;;;;;4.50;2.25;;;20.60;47.90;;;;;;6214022;28;19906;-70
2021/11/30 10:56:43;;;;;;;9.10;2.90;;;20.60;47.70;;;;;;6196752;28;20022;-67
2021/11/30 10:59:44;;;;;;;5.50;2.55;;;20.60;47.70;;;;;;6219756;28;20030;-68
2021/11/30 11:03:13;;;;;;;6.55;2.53;;;20.60;48.00;;;;;;6197024;28;20023;-66
2021/11/30 11:06:29;;;;;;;4.63;2.50;;;20.60;48.10;;;;;;6215007;28;20041;-68
2021/11/30 11:09:46;;;;;;;5.50;2.17;;;20.60;48.00;;;;;;6207553;28;20223;-67
2021/11/30 11:12:47;;;;;;;4.28;1.95;;;20.60;47.70;;;;;;6203527;28;20018;-67
2021/11/30 11:15:52;;;;;;;4.88;2.03;;;20.60;47.30;;;;;;6210059;28;20466;-66
2021/11/30 11:18:55;;;;;;;3.67;1.73;;;20.60;48.10;;;;;;6201429;28;20027;-66
2021/11/30 11:21:56;;;;;;;5.55;2.10;;;20.50;47.00;;;;;;6212106;28;20369;-66
2021/11/30 11:25:03;;;;;;;4.82;2.10;;;20.50;47.00;;;;;;6207625;28;20069;-67
2021/11/30 11:28:04;;;;;;;6.35;2.90;;;20.50;46.20;;;;;;6211307;28;20030;-67
2021/11/30 11:31:05;;;;;;;3.60;1.83;;;20.50;47.00;;;;;;6195822;28;20026;-67
2021/11/30 11:34:07;;;;;;;3.72;2.08;;;20.50;46.80;;;;;;6216664;28;20026;-67
2021/11/30 11:37:11;;;;;;;2.67;1.85;;;20.50;46.20;;;;;;6213393;28;20093;-67
2021/11/30 11:40:13;;;;;;;3.10;1.58;;;20.50;46.20;;;;;;6212773;28;20022;-68
2021/11/30 11:43:15;;;;;;;2.63;1.40;;;20.50;44.90;;;;;;6195093;28;20030;-67
2021/11/30 11:46:17;;;;;;;5.80;1.67;;;20.50;45.10;;;;;;6191595;28;20169;-68
2021/11/30 11:49:22;;;;;;;3.78;2.00;;;20.60;45.30;;;;;;6210904;28;20025;-68
2021/11/30 11:52:31;;;;;;;4.05;1.90;;;20.60;45.40;;;;;;6207935;28;20061;-67
2021/11/30 11:55:32;;;;;;;2.92;1.45;;;20.60;45.50;;;;;;6195789;28;20022;-67
2021/11/30 11:58:33;;;;;;;3.45;1.38;;;20.60;45.60;;;;;;6208685;28;20475;-68
2021/11/30 12:01:35;;;;;;;2.97;1.60;;;20.60;45.60;;;;;;6203194;28;20038;-68
2021/11/30 12:04:41;;;;;;;4.07;1.70;;;20.60;45.80;;;;;;6194147;28;20026;-68
2021/11/30 12:07:54;;;;;;;3.47;1.85;;;20.60;45.90;;;;;;6197070;28;20408;-68
2021/11/30 12:10:55;;;;;;;4.30;1.60;;;20.60;45.90;;;;;;6199504;28;20030;-68
2021/11/30 12:13:56;;;;;;;3.20;1.52;;;20.60;46.10;;;;;;6203019;28;20079;-68
2021/11/30 12:17:25;;;;;;;3.05;1.48;;;20.60;46.10;;;;;;6209736;28;20110;-68
2021/11/30 12:20:26;;;;;;;4.53;2.15;;;20.60;46.20;;;;;;6193546;28;20117;-68
2021/11/30 12:23:37;;;;;;;6.65;3.00;;;20.60;46.20;;;;;;6199920;28;20026;-68
2021/11/30 12:26:38;;;;;;;5.68;2.95;;;20.60;46.30;;;;;;6211749;28;20030;-68
2021/11/30 12:29:38;;;;;;;9.02;3.38;;;20.60;46.50;;;;;;6202043;28;20026;-68
2021/11/30 12:32:41;;;;;;;4.90;3.00;;;20.60;46.50;;;;;;6182138;28;20023;-68
2021/11/30 12:35:56;;;;;;;9.13;3.13;;;20.60;46.70;;;;;;6193843;28;20014;-68
2021/11/30 12:39:02;;;;;;;7.20;2.90;;;20.60;46.80;;;;;;6217064;28;20483;-68
2021/11/30 12:42:02;;;;;;;7.07;3.40;;;20.60;46.80;;;;;;6176641;28;20038;-68
2021/11/30 12:45:04;;;;;;;7.40;2.92;;;20.60;47.00;;;;;;6195520;28;20058;-68
2021/11/30 12:48:39;;;;;;;7.25;3.20;;;20.60;47.10;;;;;;6203549;28;20085;-68
2021/11/30 12:51:40;;;;;;;6.95;2.60;;;20.60;47.20;;;;;;6181048;28;20501;-68
2021/11/30 12:55:02;;;;;;;8.07;3.22;;;20.60;47.60;;;;;;6194119;28;20041;-68
2021/11/30 12:58:02;;;;;;;5.90;2.85;;;20.60;47.70;;;;;;6204892;28;20053;-68
2021/11/30 13:01:21;;;;;;;6.93;3.00;;;20.60;47.70;;;;;;6202095;28;20362;-68
2021/11/30 13:04:33;;;;;;;6.90;3.03;;;20.60;47.70;;;;;;6197361;28;20101;-67
2021/11/30 13:07:46;;;;;;;6.13;2.90;;;20.60;47.70;;;;;;6201853;28;20104;-67
2021/11/30 13:10:49;;;;;;;10.00;3.33;;;20.60;47.60;;;;;;6187609;28;20023;-68
2021/11/30 13:14:04;;;;;;;4.88;2.45;;;20.60;47.60;;;;;;6181887;28;20116;-67
2021/11/30 13:17:06;;;;;;;5.07;2.47;;;20.60;47.60;;;;;;6212423;28;20451;-67
2021/11/30 13:20:22;;;;;;;6.43;2.58;;;20.60;47.60;;;;;;6191647;28;20030;-68
2021/11/30 13:23:29;;;;;;;7.80;3.13;;;20.60;47.60;;;;;;6207977;28;20041;-70
2021/11/30 13:26:31;;;;;;;8.50;2.75;;;20.70;47.80;;;;;;6200996;28;20042;-69
2021/11/30 13:29:31;;;;;;;8.02;2.83;;;20.60;48.00;;;;;;6210502;28;20066;-68
2021/11/30 13:32:41;;;;;;;7.63;2.90;;;20.60;47.50;;;;;;6206102;28;20036;-68
2021/11/30 13:35:43;;;;;;;8.93;3.38;;;20.60;47.40;;;;;;6204112;28;20302;-67
2021/11/30 13:38:49;;;;;;;12.50;2.92;;;20.60;46.80;;;;;;6218792;28;20030;-68
2021/11/30 13:41:50;;;;;;;7.55;2.45;;;20.50;46.60;;;;;;6220215;28;20046;-69
2021/11/30 13:44:52;;;;;;;10.05;2.58;;;20.50;46.30;;;;;;6206709;28;20030;-68
2021/11/30 13:47:53;;;;;;;8.93;3.05;;;20.50;46.10;;;;;;6196042;28;20058;-68
2021/11/30 13:50:56;;;;;;;7.22;2.30;;;20.50;45.60;;;;;;6196287;28;20034;-68
2021/11/30 13:53:58;;;;;;;9.18;2.33;;;20.50;46.20;;;;;;6175690;28;20934;-69
2021/11/30 13:57:05;;;;;;;6.32;2.75;;;20.50;45.00;;;;;;6203491;28;20029;-69
2021/11/30 14:00:17;;;;;;;12.35;2.88;;;20.50;45.50;;;;;;6189488;28;20038;-68
2021/11/30 14:03:17;;;;;;;11.05;3.95;;;20.50;44.80;;;;;;6196681;28;20037;-69
2021/11/30 14:06:20;;;;;;;10.77;3.80;;;20.50;44.80;;;;;;6210476;28;20116;-68
2021/11/30 14:09:40;;;;;;;14.15;3.17;;;20.50;44.50;;;;;;6204811;28;20391;-68
2021/11/30 14:12:41;;;;;;;9.38;3.33;;;20.50;44.30;;;;;;6198023;28;20093;-68
2021/11/30 14:15:43;;;;;;;11.45;3.58;;;20.50;44.40;;;;;;6198408;28;20072;-68
2021/11/30 14:18:57;;;;;;;16.92;4.63;;;20.50;44.00;;;;;;6200175;28;20018;-68
2021/11/30 14:22:00;;;;;;;15.52;4.97;;;20.40;44.10;;;;;;6210016;28;20022;-68
2021/11/30 14:25:15;;;;;;;18.98;4.82;;;20.40;43.80;;;;;;6213689;28;20025;-69
2021/11/30 14:28:17;;;;;;;17.35;4.55;;;20.50;43.70;;;;;;6220523;28;20026;-69
2021/11/30 14:31:18;;;;;;;12.73;3.72;;;20.40;43.70;;;;;;6201727;28;20534;-71
2021/11/30 14:34:31;;;;;;;17.92;4.57;;;20.50;43.60;;;;;;6213546;28;20053;-71
2021/11/30 14:37:48;;;;;;;17.67;4.93;;;20.40;44.90;;;;;;6212819;28;20021;-70
2021/11/30 14:40:48;;;;;;;28.23;5.32;;;20.40;45.70;;;;;;6202778;28;20058;-71
2021/11/30 14:43:49;;;;;;;31.55;5.18;;;20.50;43.30;;;;;;6180067;28;20096;-70
2021/11/30 14:46:50;;;;;;;37.67;6.78;;;20.50;43.40;;;;;;6203784;28;20508;-71
2021/11/30 14:50:22;;;;;;;24.05;5.55;;;20.50;43.60;;;;;;6203883;28;20404;-71
2021/11/30 14:53:26;;;;;;;23.70;4.85;;;20.50;42.90;;;;;;6130349;29;20437;-70
2021/11/30 14:56:41;;;;;;;19.23;4.80;;;20.50;43.10;;;;;;6145567;29;20456;-72
2021/11/30 14:59:42;;;;;;;11.83;3.97;;;20.50;43.20;;;;;;6141664;29;20106;-70
2021/11/30 15:02:42;;;;;;;11.80;3.50;;;20.50;43.50;;;;;;6145500;29;20031;-70
2021/11/30 15:05:46;;;;;;;14.57;4.13;;;20.50;43.60;;;;;;6144375;28;20035;-71
2021/11/30 15:08:54;;;;;;;15.50;3.92;;;20.50;43.80;;;;;;6144256;29;20429;-71
2021/11/30 15:11:59;;;;;;;18.88;3.70;;;20.50;44.00;;;;;;6160576;28;20047;-72
2021/11/30 15:15:13;;;;;;;15.00;4.03;;;20.50;44.10;;;;;;6169324;28;20387;-71
2021/11/30 15:18:15;;;;;;;16.67;3.93;;;20.50;44.30;;;;;;6153680;28;20041;-71
2021/11/30 15:21:15;;;;;;;15.63;4.63;;;20.50;44.60;;;;;;6148923;28;20066;-71
2021/11/30 15:24:18;;;;;;;15.82;3.78;;;20.50;45.00;;;;;;6169607;28;20038;-71
2021/11/30 15:27:28;;;;;;;13.75;4.43;;;20.50;45.10;;;;;;6201402;28;20022;-71
2021/11/30 15:30:28;;;;;;;12.70;4.13;;;20.50;45.30;;;;;;6188236;28;20061;-70
2021/11/30 15:33:29;;;;;;;12.48;3.85;;;20.60;45.40;;;;;;6215826;28;20022;-70
2021/11/30 15:36:30;;;;;;;12.55;4.70;;;20.60;45.30;;;;;;6214196;28;20029;-71
2021/11/30 15:39:31;;;;;;;15.50;3.30;;;20.50;45.10;;;;;;6205262;28;20133;-70
2021/11/30 15:42:32;;;;;;;12.23;4.03;;;20.60;45.20;;;;;;6195101;28;20030;-71
2021/11/30 15:45:33;;;;;;;14.88;3.85;;;20.50;45.10;;;;;;6208521;28;20045;-71
2021/11/30 15:48:33;;;;;;;13.27;3.85;;;20.60;45.60;;;;;;6194015;28;20045;-72
2021/11/30 15:51:34;;;;;;;12.40;4.15;;;20.60;45.20;;;;;;6196341;28;20459;-71
2021/11/30 15:54:40;;;;;;;9.75;3.70;;;20.60;45.30;;;;;;6195675;28;20072;-71
2021/11/30 15:57:42;;;;;;;13.25;4.13;;;20.60;45.40;;;;;;6198804;28;20033;-71
2021/11/30 16:00:42;;;;;;;8.32;3.28;;;20.60;45.50;;;;;;6200266;28;20018;-71
2021/11/30 16:03:43;;;;;;;12.45;3.45;;;20.60;45.50;;;;;;6195212;28;20041;-72